Saint Louis, MO (63145)

2:12 PM CDT on April 19, 2018 (GMT -0500)
Lambert-Saint Louis International | | Change Station
Active Advisory: Frost Advisory

Elev 604 ft 38.75 °N, 90.36 °W | Updated 21 minutes ago

Scattered Clouds
Scattered Clouds
50 °F
Feels Like 50 °F
N
13
Wind Variable Wind from North

Today
High -- | Low -- °F
--% Chance of Precip.
Yesterday
High -- | Low -- °F
Precip. -- in
Pressure 30.44 in
Visibility 10.0 miles
Clouds Scattered Clouds 3800 ft
Dew Point 33 °F
Humidity 52%
Rainfall 0.00 in
Snow Depth Not available.
6:19 AM 7:42 PM
Waxing Crescent, 17% visible
METAR KSTL 191851Z 01011KT 10SM SCT038 10/01 A3042 RMK AO2 SLP308 T01000006
Pressure 30.44 in
Visibility 10.0 miles
Clouds Scattered Clouds 3800 ft
Dew Point 33 °F
Humidity 52%
Rainfall 0.00 in
Snow Depth Not available.
6:19 AM 7:42 PM
Waxing Crescent, 17% visible
METAR KSTL 191851Z 01011KT 10SM SCT038 10/01 A3042 RMK AO2 SLP308 T01000006

Get Your Daily Forecast Email!

Thanks for signing up!

Be on the lookout for a verification email in your inbox.

You'll start receiving severe weather alerts in your inbox..

×

10-Day Weather Forecast

Almanac

Astronomy

Apr. 19, 2018 Rise Set
Actual Time
Civil Twilight
Nautical Twilight
Astronomical Twilight
Moon
Length of Visible Light
Length of Day
Tomorrow will be .
, % of the Moon is Illuminated

Today's Extremes

State Highs State Lows

Community

WunderPhotos

Category 6

Welcome to Category 6. This is the collective home for Weather Underground's featured writeups by Dr. Jeff Masters (right), Bob Henson (left), Chris Burt, and other regular contributors.

Nearby

Air Quality

  Air Quality AQ Index Pollutant
Not available.

Snow Depth

Station Depth Elevation

Earthquake Activity

City Distance Mag. Time & Date
Minimum magnitude displayed is 2.5.

Coastal Water Temperatures

Place Temperature

Stations

Nearby Weather Stations

Station Location Temp. Windchill Dew Point Humidity Wind Precip. Elev Updated Type
                   

Watches & Warnings

Frost Advisory
Issued: 2:46 AM CDT Apr. 19, 2018 – National Weather Service

... Frost advisory in effect from 1 am to 9 am CDT Friday...

The National Weather Service in Saint Louis has issued a frost
advisory, which is in effect from 1 am to 9 am CDT Friday.

* Timing... late tonight and early Friday morning.

* Temperatures... low temperatures will be in the lower to mid 30s.

* Impacts... sensitive plants and trees may be damaged or killed.

Precautionary/preparedness actions...

A frost advisory means that widespread frost is expected. Those
with agricultural interests in the advisory area should protect
tender vegetation. Also, potted plants normally left outdoors
should be covered or brought inside away from the cold.



Britt